sensor_id;sensor_type;location;lat;lon;timestamp;temperature;humidity
15977;DHT22;8091;51.914;12.786;2022-08-30T00:00:12;17.40;99.90
15977;DHT22;8091;51.914;12.786;2022-08-30T00:02:57;17.40;99.90
15977;DHT22;8091;51.914;12.786;2022-08-30T00:05:26;17.40;99.90
15977;DHT22;8091;51.914;12.786;2022-08-30T00:07:52;17.30;99.90
15977;DHT22;8091;51.914;12.786;2022-08-30T00:10:18;17.40;99.90
15977;DHT22;8091;51.914;12.786;2022-08-30T00:12:44;17.30;99.90
15977;DHT22;8091;51.914;12.786;2022-08-30T00:15:11;17.40;99.90
15977;DHT22;8091;51.914;12.786;2022-08-30T00:17:37;17.40;99.90
15977;DHT22;8091;51.914;12.786;2022-08-30T00:20:05;17.40;99.90
15977;DHT22;8091;51.914;12.786;2022-08-30T00:22:31;17.50;99.90
15977;DHT22;8091;51.914;12.786;2022-08-30T00:24:58;17.50;99.90
15977;DHT22;8091;51.914;12.786;2022-08-30T00:27:26;17.40;99.90
15977;DHT22;8091;51.914;12.786;2022-08-30T00:29:52;17.40;99.90
15977;DHT22;8091;51.914;12.786;2022-08-30T00:32:18;17.40;99.90
15977;DHT22;8091;51.914;12.786;2022-08-30T00:34:49;17.50;99.90
15977;DHT22;8091;51.914;12.786;2022-08-30T00:37:15;17.60;99.90
15977;DHT22;8091;51.914;12.786;2022-08-30T00:39:41;17.60;87.40
15977;DHT22;8091;51.914;12.786;2022-08-30T00:42:08;17.60;76.40
15977;DHT22;8091;51.914;12.786;2022-08-30T00:44:34;17.50;95.50
15977;DHT22;8091;51.914;12.786;2022-08-30T00:47:00;17.40;99.90
15977;DHT22;8091;51.914;12.786;2022-08-30T00:49:26;17.50;99.90
15977;DHT22;8091;51.914;12.786;2022-08-30T00:51:52;17.50;99.90
15977;DHT22;8091;51.914;12.786;2022-08-30T00:54:18;17.60;99.90
15977;DHT22;8091;51.914;12.786;2022-08-30T00:56:45;17.60;99.90
15977;DHT22;8091;51.914;12.786;2022-08-30T00:59:12;17.60;99.90
15977;DHT22;8091;51.914;12.786;2022-08-30T01:01:38;17.40;99.90
15977;DHT22;8091;51.914;12.786;2022-08-30T01:04:08;17.50;99.90
15977;DHT22;8091;51.914;12.786;2022-08-30T01:06:35;17.60;99.90
15977;DHT22;8091;51.914;12.786;2022-08-30T01:09:02;17.60;99.90
15977;DHT22;8091;51.914;12.786;2022-08-30T01:11:31;17.70;99.90
15977;DHT22;8091;51.914;12.786;2022-08-30T01:13:57;17.70;91.60
15977;DHT22;8091;51.914;12.786;2022-08-30T01:16:24;17.70;92.30
15977;DHT22;8091;51.914;12.786;2022-08-30T01:18:51;17.70;96.60
15977;DHT22;8091;51.914;12.786;2022-08-30T01:23:52;17.70;99.90
15977;DHT22;8091;51.914;12.786;2022-08-30T01:26:21;17.70;99.90
15977;DHT22;8091;51.914;12.786;2022-08-30T01:28:51;17.70;99.90
15977;DHT22;8091;51.914;12.786;2022-08-30T01:31:17;17.70;99.90
15977;DHT22;8091;51.914;12.786;2022-08-30T01:33:43;17.70;99.90
15977;DHT22;8091;51.914;12.786;2022-08-30T01:36:11;17.60;99.90
15977;DHT22;8091;51.914;12.786;2022-08-30T01:38:51;17.60;99.90
15977;DHT22;8091;51.914;12.786;2022-08-30T01:41:24;17.70;99.90
15977;DHT22;8091;51.914;12.786;2022-08-30T01:43:53;17.70;99.90
15977;DHT22;8091;51.914;12.786;2022-08-30T01:46:20;17.70;99.90
15977;DHT22;8091;51.914;12.786;2022-08-30T01:48:47;17.80;99.90
15977;DHT22;8091;51.914;12.786;2022-08-30T01:51:13;17.70;99.90
15977;DHT22;8091;51.914;12.786;2022-08-30T01:53:40;17.80;99.90
15977;DHT22;8091;51.914;12.786;2022-08-30T01:56:07;17.80;99.90
15977;DHT22;8091;51.914;12.786;2022-08-30T01:58:37;17.80;99.90
15977;DHT22;8091;51.914;12.786;2022-08-30T02:01:05;17.70;99.90
15977;DHT22;8091;51.914;12.786;2022-08-30T02:03:32;17.70;99.90
15977;DHT22;8091;51.914;12.786;2022-08-30T02:06:11;17.80;99.90
15977;DHT22;8091;51.914;12.786;2022-08-30T02:08:38;17.80;99.90
15977;DHT22;8091;51.914;12.786;2022-08-30T02:11:07;17.80;99.90
15977;DHT22;8091;51.914;12.786;2022-08-30T02:13:34;17.90;99.90
15977;DHT22;8091;51.914;12.786;2022-08-30T02:16:03;17.80;99.90
15977;DHT22;8091;51.914;12.786;2022-08-30T02:18:28;17.70;99.90
15977;DHT22;8091;51.914;12.786;2022-08-30T02:20:57;17.70;99.90
15977;DHT22;8091;51.914;12.786;2022-08-30T02:23:22;17.70;99.90
15977;DHT22;8091;51.914;12.786;2022-08-30T02:25:48;17.70;99.90
15977;DHT22;8091;51.914;12.786;2022-08-30T02:28:13;17.60;99.90
15977;DHT22;8091;51.914;12.786;2022-08-30T02:30:40;17.50;99.90
15977;DHT22;8091;51.914;12.786;2022-08-30T02:33:06;17.40;99.90
15977;DHT22;8091;51.914;12.786;2022-08-30T02:35:32;17.30;99.90
15977;DHT22;8091;51.914;12.786;2022-08-30T02:37:57;17.30;99.90
15977;DHT22;8091;51.914;12.786;2022-08-30T02:40:23;17.30;99.90
15977;DHT22;8091;51.914;12.786;2022-08-30T02:42:49;17.20;99.90
15977;DHT22;8091;51.914;12.786;2022-08-30T02:45:15;17.20;99.90
15977;DHT22;8091;51.914;12.786;2022-08-30T02:47:41;17.30;99.90
15977;DHT22;8091;51.914;12.786;2022-08-30T02:50:08;17.30;99.90
15977;DHT22;8091;51.914;12.786;2022-08-30T02:52:37;17.20;99.90
15977;DHT22;8091;51.914;12.786;2022-08-30T02:55:04;17.10;99.90
15977;DHT22;8091;51.914;12.786;2022-08-30T02:57:30;17.10;99.90
15977;DHT22;8091;51.914;12.786;2022-08-30T02:59:56;17.10;99.90
15977;DHT22;8091;51.914;12.786;2022-08-30T03:02:23;17.10;99.90
15977;DHT22;8091;51.914;12.786;2022-08-30T03:04:48;17.10;99.90
15977;DHT22;8091;51.914;12.786;2022-08-30T03:07:15;17.10;99.90
15977;DHT22;8091;51.914;12.786;2022-08-30T03:09:41;17.10;99.90
15977;DHT22;8091;51.914;12.786;2022-08-30T03:12:10;17.10;99.90
15977;DHT22;8091;51.914;12.786;2022-08-30T03:14:37;17.10;99.90
15977;DHT22;8091;51.914;12.786;2022-08-30T03:17:04;17.10;99.90
15977;DHT22;8091;51.914;12.786;2022-08-30T03:19:32;17.10;99.90
15977;DHT22;8091;51.914;12.786;2022-08-30T03:21:58;17.10;99.90
15977;DHT22;8091;51.914;12.786;2022-08-30T03:24:24;17.20;99.90
15977;DHT22;8091;51.914;12.786;2022-08-30T03:26:50;17.20;99.90
15977;DHT22;8091;51.914;12.786;2022-08-30T03:29:16;17.20;99.90
15977;DHT22;8091;51.914;12.786;2022-08-30T03:31:42;17.20;99.90
15977;DHT22;8091;51.914;12.786;2022-08-30T03:34:08;17.20;99.90
15977;DHT22;8091;51.914;12.786;2022-08-30T03:36:36;17.10;99.90
15977;DHT22;8091;51.914;12.786;2022-08-30T03:39:06;17.10;99.90
15977;DHT22;8091;51.914;12.786;2022-08-30T03:41:32;17.10;99.90
15977;DHT22;8091;51.914;12.786;2022-08-30T03:43:59;17.10;99.90
15977;DHT22;8091;51.914;12.786;2022-08-30T03:46:25;17.10;99.90
15977;DHT22;8091;51.914;12.786;2022-08-30T03:48:51;17.10;99.90
15977;DHT22;8091;51.914;12.786;2022-08-30T03:51:17;17.10;99.90
15977;DHT22;8091;51.914;12.786;2022-08-30T03:53:43;17.00;99.90
15977;DHT22;8091;51.914;12.786;2022-08-30T03:56:09;17.00;99.90
15977;DHT22;8091;51.914;12.786;2022-08-30T03:58:35;17.00;99.90
15977;DHT22;8091;51.914;12.786;2022-08-30T04:01:01;17.00;99.90
15977;DHT22;8091;51.914;12.786;2022-08-30T04:03:26;17.00;99.90
15977;DHT22;8091;51.914;12.786;2022-08-30T04:05:53;17.00;99.90
15977;DHT22;8091;51.914;12.786;2022-08-30T04:08:19;17.00;99.90
15977;DHT22;8091;51.914;12.786;2022-08-30T04:10:46;17.10;99.90
15977;DHT22;8091;51.914;12.786;2022-08-30T04:13:15;17.20;99.90
15977;DHT22;8091;51.914;12.786;2022-08-30T04:15:41;17.20;99.90
15977;DHT22;8091;51.914;12.786;2022-08-30T04:18:07;17.10;99.90
15977;DHT22;8091;51.914;12.786;2022-08-30T04:20:32;17.20;99.90
15977;DHT22;8091;51.914;12.786;2022-08-30T04:22:58;17.20;99.90
15977;DHT22;8091;51.914;12.786;2022-08-30T04:25:24;17.20;99.90
15977;DHT22;8091;51.914;12.786;2022-08-30T04:27:50;17.40;99.90
15977;DHT22;8091;51.914;12.786;2022-08-30T04:30:16;17.20;99.90
15977;DHT22;8091;51.914;12.786;2022-08-30T04:32:42;17.20;99.90
15977;DHT22;8091;51.914;12.786;2022-08-30T04:35:08;17.20;99.90
15977;DHT22;8091;51.914;12.786;2022-08-30T04:37:35;17.20;99.90
15977;DHT22;8091;51.914;12.786;2022-08-30T04:40:01;17.20;99.90
15977;DHT22;8091;51.914;12.786;2022-08-30T04:42:30;17.30;99.90
15977;DHT22;8091;51.914;12.786;2022-08-30T04:44:57;17.40;99.90
15977;DHT22;8091;51.914;12.786;2022-08-30T04:47:23;17.30;99.90
15977;DHT22;8091;51.914;12.786;2022-08-30T04:49:48;17.40;99.90
15977;DHT22;8091;51.914;12.786;2022-08-30T04:52:14;17.30;99.90
15977;DHT22;8091;51.914;12.786;2022-08-30T04:54:39;17.20;99.90
15977;DHT22;8091;51.914;12.786;2022-08-30T04:57:06;17.30;99.90
15977;DHT22;8091;51.914;12.786;2022-08-30T04:59:32;17.20;99.90
15977;DHT22;8091;51.914;12.786;2022-08-30T05:01:58;17.30;99.90
15977;DHT22;8091;51.914;12.786;2022-08-30T05:04:23;17.40;99.90
15977;DHT22;8091;51.914;12.786;2022-08-30T05:06:49;17.30;99.90
15977;DHT22;8091;51.914;12.786;2022-08-30T05:09:15;17.50;99.90
15977;DHT22;8091;51.914;12.786;2022-08-30T05:11:41;17.50;99.90
15977;DHT22;8091;51.914;12.786;2022-08-30T05:14:08;17.50;99.90
15977;DHT22;8091;51.914;12.786;2022-08-30T05:16:34;17.50;99.90
15977;DHT22;8091;51.914;12.786;2022-08-30T05:18:59;17.60;99.90
15977;DHT22;8091;51.914;12.786;2022-08-30T05:21:26;17.60;99.90
15977;DHT22;8091;51.914;12.786;2022-08-30T05:23:57;17.60;99.90
15977;DHT22;8091;51.914;12.786;2022-08-30T05:26:26;17.70;99.90
15977;DHT22;8091;51.914;12.786;2022-08-30T05:28:53;17.70;99.90
15977;DHT22;8091;51.914;12.786;2022-08-30T05:31:24;17.60;99.90
15977;DHT22;8091;51.914;12.786;2022-08-30T05:33:52;17.70;99.90
15977;DHT22;8091;51.914;12.786;2022-08-30T05:36:19;17.80;99.90
15977;DHT22;8091;51.914;12.786;2022-08-30T05:38:46;17.70;99.90
15977;DHT22;8091;51.914;12.786;2022-08-30T05:41:12;17.90;99.90
15977;DHT22;8091;51.914;12.786;2022-08-30T05:43:38;17.90;99.90
15977;DHT22;8091;51.914;12.786;2022-08-30T05:46:06;17.90;99.90
15977;DHT22;8091;51.914;12.786;2022-08-30T05:48:32;18.00;99.90
15977;DHT22;8091;51.914;12.786;2022-08-30T05:53:28;18.00;99.90
15977;DHT22;8091;51.914;12.786;2022-08-30T05:55:54;18.10;99.90
15977;DHT22;8091;51.914;12.786;2022-08-30T05:58:20;18.10;99.90
15977;DHT22;8091;51.914;12.786;2022-08-30T06:00:46;18.00;99.90
15977;DHT22;8091;51.914;12.786;2022-08-30T06:03:11;18.00;99.90
15977;DHT22;8091;51.914;12.786;2022-08-30T06:05:37;18.00;99.90
15977;DHT22;8091;51.914;12.786;2022-08-30T06:08:03;18.00;99.90
15977;DHT22;8091;51.914;12.786;2022-08-30T06:10:29;17.90;99.90
15977;DHT22;8091;51.914;12.786;2022-08-30T06:12:54;17.90;99.90
15977;DHT22;8091;51.914;12.786;2022-08-30T06:15:20;18.00;99.90
15977;DHT22;8091;51.914;12.786;2022-08-30T06:17:47;18.10;99.90
15977;DHT22;8091;51.914;12.786;2022-08-30T06:20:13;18.20;99.90
15977;DHT22;8091;51.914;12.786;2022-08-30T06:22:39;18.30;99.90
15977;DHT22;8091;51.914;12.786;2022-08-30T06:25:05;18.40;99.90
15977;DHT22;8091;51.914;12.786;2022-08-30T06:27:31;18.50;99.90
15977;DHT22;8091;51.914;12.786;2022-08-30T06:29:56;18.60;95.40
15977;DHT22;8091;51.914;12.786;2022-08-30T06:32:22;18.70;90.30
15977;DHT22;8091;51.914;12.786;2022-08-30T06:34:48;18.80;62.70
15977;DHT22;8091;51.914;12.786;2022-08-30T06:37:14;19.00;65.30
15977;DHT22;8091;51.914;12.786;2022-08-30T06:39:39;19.10;48.70
15977;DHT22;8091;51.914;12.786;2022-08-30T06:42:05;19.20;25.10
15977;DHT22;8091;51.914;12.786;2022-08-30T06:44:31;19.30;6.70
15977;DHT22;8091;51.914;12.786;2022-08-30T06:46:56;19.40;1.00
15977;DHT22;8091;51.914;12.786;2022-08-30T06:49:22;19.60;1.00
15977;DHT22;8091;51.914;12.786;2022-08-30T06:51:48;19.50;1.00
15977;DHT22;8091;51.914;12.786;2022-08-30T06:54:15;19.60;1.00
15977;DHT22;8091;51.914;12.786;2022-08-30T06:56:40;19.70;1.00
15977;DHT22;8091;51.914;12.786;2022-08-30T06:59:06;19.60;1.00
15977;DHT22;8091;51.914;12.786;2022-08-30T07:01:44;19.60;1.00
15977;DHT22;8091;51.914;12.786;2022-08-30T07:04:10;19.50;1.00
15977;DHT22;8091;51.914;12.786;2022-08-30T07:06:35;19.50;1.00
15977;DHT22;8091;51.914;12.786;2022-08-30T07:09:01;19.50;1.00
15977;DHT22;8091;51.914;12.786;2022-08-30T07:11:32;19.40;1.00
15977;DHT22;8091;51.914;12.786;2022-08-30T07:13:58;19.30;1.00
15977;DHT22;8091;51.914;12.786;2022-08-30T07:16:24;19.20;36.60
15977;DHT22;8091;51.914;12.786;2022-08-30T07:18:50;19.20;46.20
15977;DHT22;8091;51.914;12.786;2022-08-30T07:21:22;19.00;42.00
15977;DHT22;8091;51.914;12.786;2022-08-30T07:23:49;19.00;97.20
15977;DHT22;8091;51.914;12.786;2022-08-30T07:26:18;19.10;93.60
15977;DHT22;8091;51.914;12.786;2022-08-30T07:28:45;19.10;51.80
15977;DHT22;8091;51.914;12.786;2022-08-30T07:31:13;19.10;54.50
15977;DHT22;8091;51.914;12.786;2022-08-30T07:33:39;19.00;70.10
15977;DHT22;8091;51.914;12.786;2022-08-30T07:36:05;18.90;99.90
15977;DHT22;8091;51.914;12.786;2022-08-30T07:38:31;19.00;99.90
15977;DHT22;8091;51.914;12.786;2022-08-30T07:40:57;19.10;97.40
15977;DHT22;8091;51.914;12.786;2022-08-30T07:43:26;19.10;93.10
15977;DHT22;8091;51.914;12.786;2022-08-30T07:45:51;19.10;99.90
15977;DHT22;8091;51.914;12.786;2022-08-30T07:48:17;19.10;95.30
15977;DHT22;8091;51.914;12.786;2022-08-30T07:50:45;19.10;99.90
15977;DHT22;8091;51.914;12.786;2022-08-30T07:53:11;19.10;99.90
15977;DHT22;8091;51.914;12.786;2022-08-30T07:55:38;19.10;99.90
15977;DHT22;8091;51.914;12.786;2022-08-30T07:58:04;19.10;99.90
15977;DHT22;8091;51.914;12.786;2022-08-30T08:00:30;19.10;99.90
15977;DHT22;8091;51.914;12.786;2022-08-30T08:02:55;19.10;99.90
15977;DHT22;8091;51.914;12.786;2022-08-30T08:05:21;19.10;99.90
15977;DHT22;8091;51.914;12.786;2022-08-30T08:07:47;19.30;83.80
15977;DHT22;8091;51.914;12.786;2022-08-30T08:10:13;19.30;89.20
15977;DHT22;8091;51.914;12.786;2022-08-30T08:12:40;19.50;31.40
15977;DHT22;8091;51.914;12.786;2022-08-30T08:15:06;19.60;19.90
15977;DHT22;8091;51.914;12.786;2022-08-30T08:17:32;19.60;32.80
15977;DHT22;8091;51.914;12.786;2022-08-30T08:19:57;19.50;34.70
15977;DHT22;8091;51.914;12.786;2022-08-30T08:22:23;19.50;22.60
15977;DHT22;8091;51.914;12.786;2022-08-30T08:24:49;19.70;1.00
15977;DHT22;8091;51.914;12.786;2022-08-30T08:27:15;19.70;4.60
15977;DHT22;8091;51.914;12.786;2022-08-30T08:29:40;19.80;8.00
15977;DHT22;8091;51.914;12.786;2022-08-30T08:32:07;20.00;1.00
15977;DHT22;8091;51.914;12.786;2022-08-30T08:34:34;20.20;1.00
15977;DHT22;8091;51.914;12.786;2022-08-30T08:37:00;20.50;1.00
15977;DHT22;8091;51.914;12.786;2022-08-30T08:39:26;20.50;1.00
15977;DHT22;8091;51.914;12.786;2022-08-30T08:45:05;20.70;1.00
15977;DHT22;8091;51.914;12.786;2022-08-30T08:47:38;20.70;1.00
15977;DHT22;8091;51.914;12.786;2022-08-30T08:50:11;20.70;1.00
15977;DHT22;8091;51.914;12.786;2022-08-30T08:52:49;20.90;1.00
15977;DHT22;8091;51.914;12.786;2022-08-30T08:55:39;21.00;1.00
15977;DHT22;8091;51.914;12.786;2022-08-30T08:58:11;21.10;1.00
15977;DHT22;8091;51.914;12.786;2022-08-30T09:00:38;21.00;1.00
15977;DHT22;8091;51.914;12.786;2022-08-30T09:03:04;20.90;1.00
15977;DHT22;8091;51.914;12.786;2022-08-30T09:05:35;20.90;1.00
15977;DHT22;8091;51.914;12.786;2022-08-30T09:08:06;20.90;1.00
15977;DHT22;8091;51.914;12.786;2022-08-30T09:10:32;21.00;1.00
15977;DHT22;8091;51.914;12.786;2022-08-30T09:12:59;21.00;99.90
15977;DHT22;8091;51.914;12.786;2022-08-30T09:15:30;21.20;99.90
15977;DHT22;8091;51.914;12.786;2022-08-30T09:18:05;21.40;1.00
15977;DHT22;8091;51.914;12.786;2022-08-30T09:20:51;21.60;99.90
15977;DHT22;8091;51.914;12.786;2022-08-30T09:23:27;21.80;1.00
15977;DHT22;8091;51.914;12.786;2022-08-30T09:26:01;21.80;99.90
15977;DHT22;8091;51.914;12.786;2022-08-30T09:28:42;22.10;1.00
15977;DHT22;8091;51.914;12.786;2022-08-30T09:31:29;22.40;99.90
15977;DHT22;8091;51.914;12.786;2022-08-30T09:34:07;22.80;1.00
15977;DHT22;8091;51.914;12.786;2022-08-30T09:36:45;22.60;99.90
15977;DHT22;8091;51.914;12.786;2022-08-30T09:39:25;22.30;1.00
15977;DHT22;8091;51.914;12.786;2022-08-30T09:41:53;22.20;34.10
15977;DHT22;8091;51.914;12.786;2022-08-30T09:44:22;22.20;1.00
15977;DHT22;8091;51.914;12.786;2022-08-30T09:46:53;22.10;1.00
15977;DHT22;8091;51.914;12.786;2022-08-30T09:52:11;22.30;1.00
15977;DHT22;8091;51.914;12.786;2022-08-30T10:05:14;22.90;1.00
15977;DHT22;8091;51.914;12.786;2022-08-30T10:10:32;23.40;1.00
15977;DHT22;8091;51.914;12.786;2022-08-30T10:13:27;23.60;1.00
15977;DHT22;8091;51.914;12.786;2022-08-30T10:18:57;24.10;1.00
15977;DHT22;8091;51.914;12.786;2022-08-30T10:21:34;24.60;1.00
15977;DHT22;8091;51.914;12.786;2022-08-30T10:24:04;25.10;99.90
15977;DHT22;8091;51.914;12.786;2022-08-30T10:26:33;25.50;1.00
15977;DHT22;8091;51.914;12.786;2022-08-30T10:29:20;25.80;1.00
15977;DHT22;8091;51.914;12.786;2022-08-30T10:31:54;25.70;1.00
15977;DHT22;8091;51.914;12.786;2022-08-30T10:34:24;25.50;1.00
15977;DHT22;8091;51.914;12.786;2022-08-30T10:37:00;25.50;1.00
15977;DHT22;8091;51.914;12.786;2022-08-30T10:39:30;26.20;1.00
15977;DHT22;8091;51.914;12.786;2022-08-30T10:42:06;27.30;1.00
15977;DHT22;8091;51.914;12.786;2022-08-30T10:44:40;27.80;1.00
15977;DHT22;8091;51.914;12.786;2022-08-30T10:50:12;26.70;1.00
15977;DHT22;8091;51.914;12.786;2022-08-30T10:52:59;27.10;1.00
15977;DHT22;8091;51.914;12.786;2022-08-30T10:55:30;27.30;99.90
15977;DHT22;8091;51.914;12.786;2022-08-30T10:57:59;27.40;99.90
15977;DHT22;8091;51.914;12.786;2022-08-30T11:09:08;29.40;99.90
15977;DHT22;8091;51.914;12.786;2022-08-30T11:14:24;29.80;99.90
15977;DHT22;8091;51.914;12.786;2022-08-30T11:16:52;31.00;99.90
15977;DHT22;8091;51.914;12.786;2022-08-30T11:19:35;31.40;99.90
15977;DHT22;8091;51.914;12.786;2022-08-30T11:22:14;32.30;99.90
15977;DHT22;8091;51.914;12.786;2022-08-30T11:25:14;32.10;99.90
15977;DHT22;8091;51.914;12.786;2022-08-30T11:35:49;32.80;97.80
15977;DHT22;8091;51.914;12.786;2022-08-30T11:41:12;34.20;80.70
15977;DHT22;8091;51.914;12.786;2022-08-30T11:57:21;32.60;48.90
15977;DHT22;8091;51.914;12.786;2022-08-30T12:00:17;32.60;49.70
15977;DHT22;8091;51.914;12.786;2022-08-30T12:11:07;33.90;42.90
15977;DHT22;8091;51.914;12.786;2022-08-30T12:13:53;34.10;39.90
15977;DHT22;8091;51.914;12.786;2022-08-30T12:18:58;35.20;27.90
15977;DHT22;8091;51.914;12.786;2022-08-30T12:21:34;35.60;23.00
15977;DHT22;8091;51.914;12.786;2022-08-30T12:24:12;35.90;16.10
15977;DHT22;8091;51.914;12.786;2022-08-30T12:26:42;35.50;14.00
15977;DHT22;8091;51.914;12.786;2022-08-30T12:29:19;35.30;14.10
15977;DHT22;8091;51.914;12.786;2022-08-30T12:31:55;35.20;12.10
15977;DHT22;8091;51.914;12.786;2022-08-30T12:39:46;36.50;3.90
15977;DHT22;8091;51.914;12.786;2022-08-30T12:42:18;36.40;3.80
15977;DHT22;8091;51.914;12.786;2022-08-30T12:44:46;36.70;1.00
15977;DHT22;8091;51.914;12.786;2022-08-30T12:47:13;35.70;1.00
15977;DHT22;8091;51.914;12.786;2022-08-30T12:49:42;35.00;1.00
15977;DHT22;8091;51.914;12.786;2022-08-30T12:52:34;33.80;1.00
15977;DHT22;8091;51.914;12.786;2022-08-30T12:55:24;33.90;1.00
15977;DHT22;8091;51.914;12.786;2022-08-30T12:58:00;34.70;1.00
15977;DHT22;8091;51.914;12.786;2022-08-30T13:03:00;36.80;1.00
15977;DHT22;8091;51.914;12.786;2022-08-30T13:10:52;35.90;1.00
15977;DHT22;8091;51.914;12.786;2022-08-30T13:21:45;38.30;1.00
15977;DHT22;8091;51.914;12.786;2022-08-30T13:24:12;37.10;1.00
15977;DHT22;8091;51.914;12.786;2022-08-30T13:26:38;36.70;1.00
15977;DHT22;8091;51.914;12.786;2022-08-30T13:29:06;37.50;1.00
15977;DHT22;8091;51.914;12.786;2022-08-30T13:31:38;37.00;1.00
15977;DHT22;8091;51.914;12.786;2022-08-30T13:34:04;37.10;1.00
15977;DHT22;8091;51.914;12.786;2022-08-30T13:36:32;37.60;1.00
15977;DHT22;8091;51.914;12.786;2022-08-30T13:38:58;38.50;1.00
15977;DHT22;8091;51.914;12.786;2022-08-30T13:41:25;38.10;1.00
15977;DHT22;8091;51.914;12.786;2022-08-30T13:43:51;38.50;1.00
15977;DHT22;8091;51.914;12.786;2022-08-30T13:46:18;38.70;1.00
15977;DHT22;8091;51.914;12.786;2022-08-30T13:48:44;38.40;1.00
15977;DHT22;8091;51.914;12.786;2022-08-30T13:51:10;38.80;1.00
15977;DHT22;8091;51.914;12.786;2022-08-30T13:53:36;39.60;1.00
15977;DHT22;8091;51.914;12.786;2022-08-30T13:56:03;40.30;1.00
15977;DHT22;8091;51.914;12.786;2022-08-30T13:58:30;40.00;1.00
15977;DHT22;8091;51.914;12.786;2022-08-30T14:00:56;38.90;1.00
15977;DHT22;8091;51.914;12.786;2022-08-30T14:03:22;39.10;1.00
15977;DHT22;8091;51.914;12.786;2022-08-30T14:05:48;38.00;1.00
15977;DHT22;8091;51.914;12.786;2022-08-30T14:08:16;37.50;1.00
15977;DHT22;8091;51.914;12.786;2022-08-30T14:10:42;37.00;1.00
15977;DHT22;8091;51.914;12.786;2022-08-30T14:13:08;35.30;1.00
15977;DHT22;8091;51.914;12.786;2022-08-30T14:15:35;33.90;1.00
15977;DHT22;8091;51.914;12.786;2022-08-30T14:18:01;33.20;1.00
15977;DHT22;8091;51.914;12.786;2022-08-30T14:20:27;32.40;1.00
15977;DHT22;8091;51.914;12.786;2022-08-30T14:22:53;31.90;1.00
15977;DHT22;8091;51.914;12.786;2022-08-30T14:25:19;30.70;1.00
15977;DHT22;8091;51.914;12.786;2022-08-30T14:27:45;30.20;1.00
15977;DHT22;8091;51.914;12.786;2022-08-30T14:30:10;29.80;1.00
15977;DHT22;8091;51.914;12.786;2022-08-30T14:32:36;31.20;1.00
15977;DHT22;8091;51.914;12.786;2022-08-30T14:35:02;33.00;1.00
15977;DHT22;8091;51.914;12.786;2022-08-30T14:37:28;33.90;1.00
15977;DHT22;8091;51.914;12.786;2022-08-30T14:39:53;34.40;1.00
15977;DHT22;8091;51.914;12.786;2022-08-30T14:42:19;34.90;1.00
15977;DHT22;8091;51.914;12.786;2022-08-30T14:44:45;34.60;1.00
15977;DHT22;8091;51.914;12.786;2022-08-30T14:47:10;35.40;1.00
15977;DHT22;8091;51.914;12.786;2022-08-30T14:49:36;36.00;1.00
15977;DHT22;8091;51.914;12.786;2022-08-30T14:52:02;35.80;1.00
15977;DHT22;8091;51.914;12.786;2022-08-30T14:54:29;35.00;1.00
15977;DHT22;8091;51.914;12.786;2022-08-30T14:56:55;34.00;1.00
15977;DHT22;8091;51.914;12.786;2022-08-30T14:59:22;33.30;1.00
15977;DHT22;8091;51.914;12.786;2022-08-30T15:01:48;32.70;1.00
15977;DHT22;8091;51.914;12.786;2022-08-30T15:04:14;31.30;1.00
15977;DHT22;8091;51.914;12.786;2022-08-30T15:06:41;30.60;1.00
15977;DHT22;8091;51.914;12.786;2022-08-30T15:09:09;30.30;1.00
15977;DHT22;8091;51.914;12.786;2022-08-30T15:11:36;29.70;1.00
15977;DHT22;8091;51.914;12.786;2022-08-30T15:14:03;30.20;1.00
15977;DHT22;8091;51.914;12.786;2022-08-30T15:16:31;30.60;1.00
15977;DHT22;8091;51.914;12.786;2022-08-30T15:18:58;30.70;1.00
15977;DHT22;8091;51.914;12.786;2022-08-30T15:21:25;31.10;1.00
15977;DHT22;8091;51.914;12.786;2022-08-30T15:23:52;32.50;1.00
15977;DHT22;8091;51.914;12.786;2022-08-30T15:26:18;33.20;1.00
15977;DHT22;8091;51.914;12.786;2022-08-30T15:28:44;33.90;1.00
15977;DHT22;8091;51.914;12.786;2022-08-30T15:31:10;34.10;1.00
15977;DHT22;8091;51.914;12.786;2022-08-30T15:33:36;34.60;1.00
15977;DHT22;8091;51.914;12.786;2022-08-30T15:36:04;34.00;1.00
15977;DHT22;8091;51.914;12.786;2022-08-30T15:38:30;33.30;1.00
15977;DHT22;8091;51.914;12.786;2022-08-30T15:40:56;33.40;1.00
15977;DHT22;8091;51.914;12.786;2022-08-30T15:43:26;33.60;1.00
15977;DHT22;8091;51.914;12.786;2022-08-30T15:45:53;34.10;1.00
15977;DHT22;8091;51.914;12.786;2022-08-30T15:48:19;34.30;1.00
15977;DHT22;8091;51.914;12.786;2022-08-30T15:50:44;34.60;1.00
15977;DHT22;8091;51.914;12.786;2022-08-30T15:53:10;34.90;1.00
15977;DHT22;8091;51.914;12.786;2022-08-30T15:55:36;34.60;1.00
15977;DHT22;8091;51.914;12.786;2022-08-30T15:58:01;33.60;1.00
15977;DHT22;8091;51.914;12.786;2022-08-30T16:00:27;32.60;1.00
15977;DHT22;8091;51.914;12.786;2022-08-30T16:02:52;31.50;1.00
15977;DHT22;8091;51.914;12.786;2022-08-30T16:05:19;30.50;1.00
15977;DHT22;8091;51.914;12.786;2022-08-30T16:07:48;29.70;1.00
15977;DHT22;8091;51.914;12.786;2022-08-30T16:10:14;29.00;1.00
15977;DHT22;8091;51.914;12.786;2022-08-30T16:12:39;28.70;1.00
15977;DHT22;8091;51.914;12.786;2022-08-30T16:15:05;28.40;1.00
15977;DHT22;8091;51.914;12.786;2022-08-30T16:17:31;28.10;1.00
15977;DHT22;8091;51.914;12.786;2022-08-30T16:19:57;27.80;1.00
15977;DHT22;8091;51.914;12.786;2022-08-30T16:22:22;27.70;1.00
15977;DHT22;8091;51.914;12.786;2022-08-30T16:24:49;27.40;1.00
15977;DHT22;8091;51.914;12.786;2022-08-30T16:27:15;27.50;1.00
15977;DHT22;8091;51.914;12.786;2022-08-30T16:29:41;27.00;1.00
15977;DHT22;8091;51.914;12.786;2022-08-30T16:32:06;26.90;1.00
15977;DHT22;8091;51.914;12.786;2022-08-30T16:34:32;26.80;1.00
15977;DHT22;8091;51.914;12.786;2022-08-30T16:36:58;26.60;4.50
15977;DHT22;8091;51.914;12.786;2022-08-30T16:39:23;26.40;10.90
15977;DHT22;8091;51.914;12.786;2022-08-30T16:41:49;26.30;17.50
15977;DHT22;8091;51.914;12.786;2022-08-30T16:44:14;26.10;26.80
15977;DHT22;8091;51.914;12.786;2022-08-30T16:46:40;26.00;35.10
15977;DHT22;8091;51.914;12.786;2022-08-30T16:49:07;25.60;50.90
15977;DHT22;8091;51.914;12.786;2022-08-30T16:51:34;25.50;69.80
15977;DHT22;8091;51.914;12.786;2022-08-30T16:54:02;25.50;83.80
15977;DHT22;8091;51.914;12.786;2022-08-30T16:56:30;25.40;95.40
15977;DHT22;8091;51.914;12.786;2022-08-30T16:58:57;25.20;99.90
15977;DHT22;8091;51.914;12.786;2022-08-30T17:01:23;25.10;99.90
15977;DHT22;8091;51.914;12.786;2022-08-30T17:03:49;25.10;99.90
15977;DHT22;8091;51.914;12.786;2022-08-30T17:06:15;24.90;99.90
15977;DHT22;8091;51.914;12.786;2022-08-30T17:08:41;24.80;99.90
15977;DHT22;8091;51.914;12.786;2022-08-30T17:11:09;24.70;99.90
15977;DHT22;8091;51.914;12.786;2022-08-30T17:13:35;24.60;99.90
15977;DHT22;8091;51.914;12.786;2022-08-30T17:16:00;24.50;99.90
15977;DHT22;8091;51.914;12.786;2022-08-30T17:18:27;24.40;99.90
15977;DHT22;8091;51.914;12.786;2022-08-30T17:20:53;24.40;99.90